createdAt,value
2019-03-16T00:00:15.360Z,55.10
2019-03-16T00:02:43.909Z,55.00
2019-03-16T00:05:12.588Z,55.00
2019-03-16T00:07:41.324Z,54.80
2019-03-16T00:10:10.035Z,54.90
2019-03-16T00:12:38.592Z,54.70
2019-03-16T00:15:08.417Z,54.60
2019-03-16T00:17:36.952Z,54.70
2019-03-16T00:20:10.407Z,54.60
2019-03-16T00:22:39.065Z,54.70
2019-03-16T00:25:09.320Z,54.70
2019-03-16T00:27:38.048Z,54.50
2019-03-16T00:30:09.345Z,54.30
2019-03-16T00:32:37.895Z,54.30
2019-03-16T00:35:06.660Z,54.00
2019-03-16T00:37:35.200Z,54.10
2019-03-16T00:40:10.106Z,54.10
2019-03-16T00:42:40.827Z,53.90
2019-03-16T00:45:11.158Z,53.40
2019-03-16T00:47:40.053Z,53.70
2019-03-16T00:50:11.461Z,53.30
2019-03-16T00:52:43.457Z,53.20
2019-03-16T00:55:15.429Z,53.20
2019-03-16T00:57:47.797Z,52.40
2019-03-16T01:00:17.492Z,52.40
2019-03-16T01:02:46.072Z,52.00
2019-03-16T01:05:15.286Z,52.00
2019-03-16T01:07:43.913Z,51.90
2019-03-16T01:10:12.519Z,51.60
2019-03-16T01:12:41.115Z,51.90
2019-03-16T01:15:12.055Z,52.00
2019-03-16T01:17:40.650Z,52.10
2019-03-16T01:20:11.648Z,51.80
2019-03-16T01:22:42.660Z,51.90
2019-03-16T01:25:12.969Z,52.10
2019-03-16T01:27:41.503Z,52.00
2019-03-16T01:30:13.087Z,51.50
2019-03-16T01:32:41.731Z,51.40
2019-03-16T01:35:10.661Z,51.50
2019-03-16T01:37:39.439Z,51.10
2019-03-16T01:40:10.073Z,51.50
2019-03-16T01:42:38.946Z,51.10
2019-03-16T01:45:10.206Z,51.20
2019-03-16T01:47:39.117Z,51.20
2019-03-16T01:50:11.733Z,51.10
2019-03-16T01:52:40.693Z,50.90
2019-03-16T01:55:09.751Z,50.60
2019-03-16T01:57:38.539Z,50.50
2019-03-16T02:00:14.616Z,50.50
2019-03-16T02:02:54.257Z,50.60
2019-03-16T02:05:14.259Z,50.30
2019-03-16T02:07:42.787Z,50.50
2019-03-16T02:10:12.287Z,50.70
2019-03-16T02:12:40.922Z,50.80
2019-03-16T02:15:09.932Z,51.00
2019-03-16T02:17:38.930Z,51.10
2019-03-16T02:20:08.947Z,51.10
2019-03-16T02:22:37.916Z,51.20
2019-03-16T02:25:08.617Z,51.10
2019-03-16T02:27:37.202Z,51.00
2019-03-16T02:30:08.470Z,51.10
2019-03-16T02:32:37.445Z,50.80
2019-03-16T02:35:08.076Z,51.00
2019-03-16T02:37:36.717Z,51.50
2019-03-16T02:40:07.429Z,51.30
2019-03-16T02:42:36.589Z,51.30
2019-03-16T02:45:07.822Z,51.30
2019-03-16T02:47:36.522Z,51.30
2019-03-16T02:50:07.617Z,51.40
2019-03-16T02:52:36.458Z,51.40
2019-03-16T02:55:07.755Z,51.30
2019-03-16T02:57:36.280Z,51.30
2019-03-16T03:00:10.250Z,51.20
2019-03-16T03:02:38.893Z,51.20
2019-03-16T03:05:09.866Z,51.20
2019-03-16T03:07:38.515Z,51.30
2019-03-16T03:10:13.717Z,51.40
2019-03-16T03:12:42.571Z,51.40
2019-03-16T03:15:11.525Z,51.30
2019-03-16T03:17:40.628Z,51.30
2019-03-16T03:20:10.192Z,51.30
2019-03-16T03:22:38.909Z,51.20
2019-03-16T03:25:08.129Z,51.10
2019-03-16T03:27:37.009Z,51.10
2019-03-16T03:30:11.329Z,51.10
2019-03-16T03:32:40.143Z,51.10
2019-03-16T03:35:09.568Z,50.90
2019-03-16T03:37:38.224Z,50.70
2019-03-16T03:40:09.370Z,51.10
2019-03-16T03:42:38.109Z,50.90
2019-03-16T03:45:09.643Z,51.10
2019-03-16T03:47:38.723Z,50.70
2019-03-16T03:50:10.201Z,50.80
2019-03-16T03:52:38.850Z,50.80
2019-03-16T03:55:10.173Z,50.90
2019-03-16T03:57:39.185Z,50.40
2019-03-16T04:00:18.876Z,50.40
2019-03-16T04:02:47.615Z,50.40
2019-03-16T04:05:16.784Z,50.20
2019-03-16T04:07:45.847Z,50.50
2019-03-16T04:10:15.010Z,50.40
2019-03-16T04:12:43.666Z,50.70
2019-03-16T04:15:13.432Z,50.60
2019-03-16T04:17:42.654Z,50.60
2019-03-16T04:20:12.522Z,50.50
2019-03-16T04:22:41.235Z,50.50
2019-03-16T04:25:10.643Z,50.40
2019-03-16T04:27:39.197Z,50.70
2019-03-16T04:30:10.158Z,50.70
2019-03-16T04:32:39.100Z,50.90
2019-03-16T04:35:08.465Z,50.90
2019-03-16T04:37:37.065Z,50.90
2019-03-16T04:40:08.018Z,50.90
2019-03-16T04:42:36.701Z,50.90
2019-03-16T04:45:08.150Z,51.00
2019-03-16T04:47:36.883Z,50.80
2019-03-16T04:50:08.364Z,51.00
2019-03-16T04:52:37.001Z,50.90
2019-03-16T04:55:06.690Z,51.00
2019-03-16T04:57:35.972Z,51.00
2019-03-16T05:00:08.223Z,51.00
2019-03-16T05:02:36.794Z,51.00
2019-03-16T05:05:06.634Z,51.00
2019-03-16T05:07:35.191Z,51.10
2019-03-16T05:10:07.447Z,51.10
2019-03-16T05:12:36.249Z,51.10
2019-03-16T05:15:07.317Z,51.20
2019-03-16T05:17:35.842Z,51.30
2019-03-16T05:20:09.306Z,51.30
2019-03-16T05:22:37.941Z,51.40
2019-03-16T05:25:09.040Z,51.50
2019-03-16T05:27:38.044Z,51.50
2019-03-16T05:30:12.343Z,51.50
2019-03-16T05:32:40.882Z,51.30
2019-03-16T05:35:09.606Z,51.30
2019-03-16T05:37:38.474Z,51.40
2019-03-16T05:40:09.196Z,51.70
2019-03-16T05:42:38.005Z,51.40
2019-03-16T05:45:10.597Z,51.50
2019-03-16T05:47:39.568Z,51.60
2019-03-16T05:50:13.083Z,51.70
2019-03-16T05:52:41.878Z,51.70
2019-03-16T05:55:11.323Z,51.70
2019-03-16T05:57:39.856Z,51.70
2019-03-16T06:00:11.716Z,51.60
2019-03-16T06:02:40.707Z,51.60
2019-03-16T06:05:11.009Z,51.60
2019-03-16T06:07:39.869Z,51.50
2019-03-16T06:10:10.306Z,51.80
2019-03-16T06:12:38.969Z,51.40
2019-03-16T06:15:11.339Z,51.30
2019-03-16T06:17:39.822Z,51.10
2019-03-16T06:20:13.599Z,51.10
2019-03-16T06:22:43.017Z,51.10
2019-03-16T06:25:12.194Z,51.20
2019-03-16T06:27:41.204Z,51.20
2019-03-16T06:30:15.387Z,51.30
2019-03-16T06:32:43.927Z,51.00
2019-03-16T06:35:23.887Z,51.20
2019-03-16T06:37:43.632Z,51.20
2019-03-16T06:40:12.568Z,51.30
2019-03-16T06:42:41.772Z,51.30
2019-03-16T06:45:12.327Z,51.50
2019-03-16T06:47:40.883Z,51.50
2019-03-16T06:50:11.877Z,51.30
2019-03-16T06:52:40.439Z,51.40
2019-03-16T06:55:09.777Z,51.50
2019-03-16T06:57:38.727Z,51.60
2019-03-16T07:00:17.487Z,51.40
2019-03-16T07:02:46.677Z,51.40
2019-03-16T07:05:15.613Z,51.50
2019-03-16T07:07:44.269Z,51.60
2019-03-16T07:10:14.683Z,51.80
2019-03-16T07:12:43.246Z,51.80
2019-03-16T07:15:13.991Z,51.90
2019-03-16T07:17:43.030Z,51.90
2019-03-16T07:20:16.254Z,51.90
2019-03-16T07:22:45.092Z,51.90
2019-03-16T07:25:14.654Z,51.90
2019-03-16T07:27:44.051Z,51.90
2019-03-16T07:30:16.478Z,51.90
2019-03-16T07:32:45.238Z,51.90
2019-03-16T07:35:14.175Z,52.00
2019-03-16T07:37:43.577Z,51.90
2019-03-16T07:40:13.494Z,52.00
2019-03-16T07:42:42.577Z,51.80
2019-03-16T07:45:12.971Z,51.70
2019-03-16T07:47:42.295Z,51.80
2019-03-16T07:50:14.251Z,51.70
2019-03-16T07:52:44.546Z,51.70
2019-03-16T07:55:13.499Z,52.00
2019-03-16T07:57:42.304Z,51.50
2019-03-16T08:00:15.266Z,51.50
2019-03-16T08:02:44.557Z,51.60
2019-03-16T08:05:18.721Z,51.60
2019-03-16T08:07:43.784Z,51.40
2019-03-16T08:10:12.509Z,51.50
2019-03-16T08:12:41.116Z,51.60
2019-03-16T08:15:10.806Z,51.70
2019-03-16T08:17:39.584Z,51.70
2019-03-16T08:20:09.777Z,51.80
2019-03-16T08:22:38.545Z,51.80
2019-03-16T08:25:08.144Z,51.80
2019-03-16T08:27:36.827Z,51.80
2019-03-16T08:30:10.613Z,51.80
2019-03-16T08:32:39.742Z,51.80
2019-03-16T08:35:10.690Z,52.20
2019-03-16T08:37:39.458Z,51.80
2019-03-16T08:40:09.900Z,51.90
2019-03-16T08:42:38.594Z,51.90
2019-03-16T08:45:11.006Z,51.90
2019-03-16T08:47:39.994Z,51.80
2019-03-16T08:50:10.297Z,51.80
2019-03-16T08:52:39.142Z,51.90
2019-03-16T08:55:09.254Z,52.00
2019-03-16T08:57:38.113Z,52.30
2019-03-16T09:00:12.013Z,52.30
2019-03-16T09:02:40.758Z,52.30
2019-03-16T09:05:09.806Z,52.30
2019-03-16T09:07:38.887Z,52.10
2019-03-16T09:10:09.747Z,52.20
2019-03-16T09:12:38.602Z,52.20
2019-03-16T09:15:12.555Z,52.00
2019-03-16T09:17:41.558Z,52.00
2019-03-16T09:20:10.458Z,51.90
2019-03-16T09:22:44.198Z,52.00
2019-03-16T09:25:12.917Z,52.10
2019-03-16T09:27:41.826Z,52.10
2019-03-16T09:30:17.379Z,52.10
2019-03-16T09:32:46.778Z,52.20
2019-03-16T09:35:15.378Z,52.10
2019-03-16T09:37:44.008Z,52.20
2019-03-16T09:40:13.674Z,52.30
2019-03-16T09:42:42.217Z,52.30
2019-03-16T09:45:11.947Z,52.40
2019-03-16T09:47:40.901Z,52.40
2019-03-16T09:50:10.985Z,52.50
2019-03-16T09:52:39.797Z,52.50
2019-03-16T09:55:13.295Z,52.60
2019-03-16T09:57:42.352Z,52.70
2019-03-16T10:00:15.830Z,52.70
2019-03-16T10:02:44.502Z,52.80
2019-03-16T10:05:13.394Z,52.80
2019-03-16T10:07:42.776Z,52.90
2019-03-16T10:10:14.385Z,52.90
2019-03-16T10:12:43.152Z,52.90
2019-03-16T10:15:13.270Z,53.00
2019-03-16T10:17:41.807Z,53.10
2019-03-16T10:20:12.373Z,53.30
2019-03-16T10:22:40.921Z,53.50
2019-03-16T10:25:09.938Z,53.90
2019-03-16T10:27:38.733Z,54.20
2019-03-16T10:30:12.415Z,54.80
2019-03-16T10:32:41.046Z,54.90
2019-03-16T10:35:09.857Z,55.20
2019-03-16T10:37:38.490Z,55.60
2019-03-16T10:40:11.907Z,56.00
2019-03-16T10:42:41.603Z,56.00
2019-03-16T10:45:11.473Z,56.20
2019-03-16T10:47:40.395Z,56.40
2019-03-16T10:50:15.260Z,56.40
2019-03-16T10:52:43.974Z,56.50
2019-03-16T10:55:12.860Z,56.60
2019-03-16T10:57:41.516Z,56.70
2019-03-16T11:00:17.267Z,56.70
2019-03-16T11:02:46.054Z,56.70
2019-03-16T11:05:15.095Z,56.50
2019-03-16T11:07:44.257Z,56.40
2019-03-16T11:10:14.276Z,56.40
2019-03-16T11:12:42.975Z,56.30
2019-03-16T11:15:12.481Z,56.20
2019-03-16T11:17:41.083Z,56.30
2019-03-16T11:20:11.369Z,56.30
2019-03-16T11:22:40.111Z,56.40
2019-03-16T11:25:09.148Z,56.20
2019-03-16T11:27:37.880Z,56.10
2019-03-16T11:30:09.597Z,56.10
2019-03-16T11:32:38.207Z,56.20
2019-03-16T11:35:11.123Z,56.10
2019-03-16T11:37:40.003Z,56.00
2019-03-16T11:40:14.671Z,55.80
2019-03-16T11:42:43.393Z,55.40
2019-03-16T11:45:13.447Z,55.20
2019-03-16T11:47:42.807Z,55.20
2019-03-16T11:50:12.501Z,55.10
2019-03-16T11:52:41.083Z,55.30
2019-03-16T11:55:10.610Z,55.30
2019-03-16T11:57:39.892Z,55.30
2019-03-16T12:00:11.575Z,55.00
2019-03-16T12:02:40.549Z,54.90
2019-03-16T12:05:11.609Z,54.70
2019-03-16T12:07:40.773Z,54.80
2019-03-16T12:10:12.802Z,54.70
2019-03-16T12:12:42.347Z,54.40
2019-03-16T12:15:13.390Z,54.40
2019-03-16T12:17:42.444Z,54.30
2019-03-16T12:20:13.415Z,54.30
2019-03-16T12:22:42.341Z,54.10
2019-03-16T12:25:11.722Z,54.80
2019-03-16T12:27:40.378Z,54.50
2019-03-16T12:30:11.441Z,54.50
2019-03-16T12:32:40.125Z,54.60
2019-03-16T12:35:09.237Z,54.50
2019-03-16T12:37:38.880Z,54.40
2019-03-16T12:40:11.166Z,54.40
2019-03-16T12:42:40.050Z,54.40
2019-03-16T12:45:20.768Z,54.10
2019-03-16T12:47:50.026Z,53.90
2019-03-16T12:50:19.249Z,54.00
2019-03-16T12:52:48.491Z,54.10
2019-03-16T12:55:17.530Z,54.30
2019-03-16T12:57:48.022Z,54.50
2019-03-16T13:00:17.897Z,54.60
2019-03-16T13:02:46.538Z,54.60
2019-03-16T13:05:15.867Z,54.70
2019-03-16T13:07:44.560Z,54.50
2019-03-16T13:10:20.832Z,54.60
2019-03-16T13:12:49.651Z,54.50
2019-03-16T13:15:18.776Z,54.60
2019-03-16T13:17:47.555Z,54.70
2019-03-16T13:20:17.617Z,54.70
2019-03-16T13:22:46.834Z,54.80
2019-03-16T13:25:15.792Z,54.50
2019-03-16T13:27:45.753Z,54.30
2019-03-16T13:30:21.756Z,54.30
2019-03-16T13:32:50.559Z,54.20
2019-03-16T13:35:19.445Z,54.20
2019-03-16T13:37:48.666Z,54.20
2019-03-16T13:40:20.293Z,54.10
2019-03-16T13:42:49.136Z,54.00
2019-03-16T13:45:18.016Z,54.20
2019-03-16T13:47:47.145Z,54.10
2019-03-16T13:50:18.151Z,54.00
2019-03-16T13:52:47.436Z,53.80
2019-03-16T13:55:17.708Z,54.00
2019-03-16T13:57:46.503Z,53.70
2019-03-16T14:00:19.700Z,53.40
2019-03-16T14:02:49.197Z,53.40
2019-03-16T14:05:18.461Z,53.40
2019-03-16T14:07:47.825Z,53.50
2019-03-16T14:10:21.416Z,53.70
2019-03-16T14:12:50.011Z,53.80
2019-03-16T14:15:43.780Z,54.20
2019-03-16T14:18:12.473Z,53.50
2019-03-16T14:20:42.010Z,53.00
2019-03-16T14:23:11.173Z,52.60
2019-03-16T14:25:40.673Z,52.20
2019-03-16T14:28:09.611Z,52.00
2019-03-16T14:30:41.821Z,51.80
2019-03-16T14:33:09.037Z,52.00
2019-03-16T14:35:38.051Z,51.80
2019-03-16T14:38:06.812Z,50.90
2019-03-16T14:40:35.928Z,50.30
2019-03-16T14:43:05.081Z,50.00
2019-03-16T14:45:34.279Z,49.60
2019-03-16T14:48:03.038Z,48.80
2019-03-16T14:50:32.477Z,48.60
2019-03-16T14:53:01.159Z,48.70
2019-03-16T14:55:30.490Z,48.70
2019-03-16T14:57:59.917Z,48.80
2019-03-16T15:00:38.518Z,48.10
2019-03-16T15:02:58.961Z,48.70
2019-03-16T15:05:27.736Z,48.70
2019-03-16T15:07:57.379Z,48.70
2019-03-16T15:10:26.342Z,48.90
2019-03-16T15:12:55.020Z,48.10
2019-03-16T15:15:23.813Z,48.10
2019-03-16T15:17:52.627Z,47.60
2019-03-16T15:20:21.639Z,47.10
2019-03-16T15:22:53.255Z,47.60
2019-03-16T15:25:21.233Z,48.00
2019-03-16T15:27:50.408Z,47.30
2019-03-16T15:30:20.313Z,47.30
2019-03-16T15:32:49.215Z,46.60
2019-03-16T15:35:18.212Z,46.70
2019-03-16T15:37:47.119Z,46.90
2019-03-16T15:40:17.020Z,46.10
2019-03-16T15:42:45.790Z,46.20
2019-03-16T15:45:31.451Z,46.00
2019-03-16T15:48:01.173Z,45.70
2019-03-16T15:50:29.688Z,46.00
2019-03-16T15:52:58.907Z,45.10
2019-03-16T15:55:28.427Z,45.60
2019-03-16T15:58:07.301Z,44.80
2019-03-16T16:00:28.143Z,45.20
2019-03-16T16:02:56.900Z,44.90
2019-03-16T16:05:26.097Z,44.80
2019-03-16T16:07:54.986Z,44.00
2019-03-16T16:10:23.912Z,44.10
2019-03-16T16:12:52.522Z,44.30
2019-03-16T16:15:21.491Z,44.30
2019-03-16T16:17:50.717Z,44.40
2019-03-16T16:20:19.837Z,44.20
2019-03-16T16:22:48.984Z,44.60
2019-03-16T16:25:18.210Z,44.40
2019-03-16T16:27:48.386Z,44.50
2019-03-16T16:30:19.067Z,44.70
2019-03-16T16:32:48.182Z,44.80
2019-03-16T16:35:17.571Z,44.90
2019-03-16T16:37:47.229Z,44.00
2019-03-16T16:40:17.349Z,43.70
2019-03-16T16:42:47.212Z,43.50
2019-03-16T16:45:17.782Z,43.80
2019-03-16T16:47:46.890Z,43.10
2019-03-16T16:50:21.443Z,43.20
2019-03-16T16:52:50.850Z,43.50
2019-03-16T16:55:19.965Z,43.60
2019-03-16T16:57:48.840Z,43.70
2019-03-16T17:00:22.751Z,43.30
2019-03-16T17:02:52.053Z,43.10
2019-03-16T17:05:21.486Z,43.30
2019-03-16T17:07:50.482Z,43.00
2019-03-16T17:10:20.621Z,43.50
2019-03-16T17:12:49.760Z,43.00
2019-03-16T17:15:20.926Z,42.90
2019-03-16T17:17:49.609Z,43.00
2019-03-16T17:20:18.900Z,43.00
2019-03-16T17:22:48.195Z,43.10
2019-03-16T17:25:16.832Z,43.00
2019-03-16T17:27:45.588Z,43.20
2019-03-16T17:30:26.792Z,42.60
2019-03-16T17:32:56.069Z,43.10
2019-03-16T17:35:25.356Z,43.20
2019-03-16T17:37:53.987Z,43.10
2019-03-16T17:40:23.380Z,43.40
2019-03-16T17:42:52.176Z,43.10
2019-03-16T17:45:21.243Z,43.00
2019-03-16T17:47:50.453Z,42.80
2019-03-16T17:50:19.721Z,42.70
2019-03-16T17:52:48.715Z,42.80
2019-03-16T17:55:18.894Z,43.00
2019-03-16T17:57:48.216Z,42.80
2019-03-16T18:00:20.845Z,42.70
2019-03-16T18:02:52.335Z,42.80
2019-03-16T18:05:20.794Z,43.00
2019-03-16T18:07:49.538Z,43.00
2019-03-16T18:10:18.510Z,42.90
2019-03-16T18:12:47.463Z,43.00
2019-03-16T18:15:19.431Z,43.00
2019-03-16T18:17:49.271Z,42.90
2019-03-16T18:20:19.056Z,43.10
2019-03-16T18:22:48.252Z,43.20
2019-03-16T18:25:18.372Z,43.20
2019-03-16T18:27:47.274Z,43.00
2019-03-16T18:30:26.038Z,43.20
2019-03-16T18:32:54.664Z,43.20
2019-03-16T18:35:23.368Z,43.30
2019-03-16T18:37:52.343Z,43.30
2019-03-16T18:40:21.088Z,43.50
2019-03-16T18:42:50.618Z,43.60
2019-03-16T18:45:25.168Z,43.50
2019-03-16T18:47:54.144Z,43.50
2019-03-16T18:50:22.920Z,43.40
2019-03-16T18:52:51.907Z,43.40
2019-03-16T18:55:21.056Z,43.30
2019-03-16T18:57:49.975Z,43.10
2019-03-16T19:00:20.527Z,43.10
2019-03-16T19:02:49.607Z,43.10
2019-03-16T19:05:18.654Z,43.10
2019-03-16T19:07:47.719Z,42.90
2019-03-16T19:10:17.318Z,43.00
2019-03-16T19:12:46.342Z,43.00
2019-03-16T19:15:16.275Z,42.90
2019-03-16T19:17:58.119Z,43.00
2019-03-16T19:20:17.375Z,43.00
2019-03-16T19:22:46.351Z,43.10
2019-03-16T19:25:20.959Z,42.90
2019-03-16T19:27:50.527Z,42.70
2019-03-16T19:30:19.419Z,42.70
2019-03-16T19:32:49.049Z,42.90
2019-03-16T19:35:18.069Z,43.20
2019-03-16T19:37:46.869Z,43.00
2019-03-16T19:40:17.662Z,42.30
2019-03-16T19:42:47.251Z,42.60
2019-03-16T19:45:16.852Z,42.80
2019-03-16T19:47:46.383Z,42.90
2019-03-16T19:50:19.042Z,42.90
2019-03-16T19:52:47.783Z,43.10
2019-03-16T19:55:16.508Z,43.10
2019-03-16T19:57:45.607Z,43.20
2019-03-16T20:00:18.474Z,43.30
2019-03-16T20:02:51.529Z,43.30
2019-03-16T20:05:18.238Z,43.50
2019-03-16T20:07:47.122Z,43.50
2019-03-16T20:10:18.803Z,43.50
2019-03-16T20:12:47.904Z,43.60
2019-03-16T20:15:17.984Z,43.60
2019-03-16T20:17:46.913Z,43.50
2019-03-16T20:20:16.830Z,43.60
2019-03-16T20:22:46.210Z,43.40
2019-03-16T20:25:15.172Z,43.20
2019-03-16T20:27:44.672Z,43.10
2019-03-16T20:30:25.842Z,43.20
2019-03-16T20:32:48.574Z,43.20
2019-03-16T20:35:18.457Z,43.20
2019-03-16T20:37:47.317Z,43.20
2019-03-16T20:40:17.435Z,43.00
2019-03-16T20:42:46.022Z,43.10
2019-03-16T20:45:14.870Z,43.40
2019-03-16T20:47:43.947Z,43.00
2019-03-16T20:50:17.366Z,42.70
2019-03-16T20:52:46.590Z,43.00
2019-03-16T20:55:15.642Z,42.90
2019-03-16T20:57:44.678Z,43.00
2019-03-16T21:00:20.133Z,42.90
2019-03-16T21:02:49.068Z,43.00
2019-03-16T21:05:18.197Z,43.00
2019-03-16T21:07:47.145Z,43.40
2019-03-16T21:10:15.989Z,43.00
2019-03-16T21:12:44.573Z,43.10
2019-03-16T21:15:14.993Z,43.10
2019-03-16T21:17:43.569Z,42.90
2019-03-16T21:20:15.931Z,42.90
2019-03-16T21:22:44.853Z,42.80
2019-03-16T21:25:15.476Z,42.80
2019-03-16T21:27:44.206Z,42.90
2019-03-16T21:30:20.822Z,43.00
2019-03-16T21:32:50.345Z,43.10
2019-03-16T21:35:19.237Z,43.10
2019-03-16T21:37:48.321Z,43.20
2019-03-16T21:40:17.852Z,43.30
2019-03-16T21:42:46.537Z,43.30
2019-03-16T21:45:15.155Z,43.40
2019-03-16T21:47:44.121Z,43.40
2019-03-16T21:50:14.727Z,43.50
2019-03-16T21:52:44.846Z,43.40
2019-03-16T21:55:14.842Z,43.50
2019-03-16T21:57:43.691Z,43.60
2019-03-16T22:00:16.758Z,43.50
2019-03-16T22:02:45.579Z,43.60
2019-03-16T22:05:14.868Z,43.70
2019-03-16T22:07:43.715Z,43.70
2019-03-16T22:10:16.991Z,43.70
2019-03-16T22:12:46.025Z,43.60
2019-03-16T22:15:15.865Z,43.70
2019-03-16T22:17:45.030Z,43.60
2019-03-16T22:20:16.157Z,43.60
2019-03-16T22:22:45.112Z,43.70
2019-03-16T22:25:14.284Z,43.70
2019-03-16T22:27:42.986Z,43.70
2019-03-16T22:30:14.062Z,43.70
2019-03-16T22:32:43.269Z,43.80
2019-03-16T22:35:12.179Z,44.10
2019-03-16T22:37:41.429Z,43.70
2019-03-16T22:40:11.865Z,43.60
2019-03-16T22:42:40.885Z,43.70
2019-03-16T22:46:10.378Z,43.80
2019-03-16T22:55:28.859Z,43.90
2019-03-16T22:57:58.537Z,44.00
2019-03-16T23:00:37.160Z,44.20
2019-03-16T23:06:09.199Z,44.10
2019-03-16T23:08:38.084Z,44.30
2019-03-16T23:11:06.936Z,44.50
2019-03-16T23:13:36.045Z,44.50
2019-03-16T23:16:05.293Z,44.50
2019-03-16T23:18:34.352Z,44.50
2019-03-16T23:21:04.037Z,44.50
2019-03-16T23:23:47.478Z,44.50
2019-03-16T23:26:49.722Z,44.60
2019-03-16T23:43:07.546Z,44.50
2019-03-16T23:46:17.229Z,44.60
2019-03-16T23:52:11.812Z,44.30
